OKTOBER 31,2014


METAR SMJP 311300Z 11012KT 080V140 9999 FEW015 30/21 Q1013 NOSIG=

METAR SMZO 311300Z 12006KT 9999 FEW020 31/23 Q1013 NOSIG=

METAR SMNI 311300Z NIL=

METAR SMST 311300Z NIL=